sensor_id;sensor_type;location;lat;lon;timestamp;P1;durP1;ratioP1;P2;durP2;ratioP2
9938;SDS011;5008;50.656;7.188;2023-02-15T05:01:12;18.43;;;12.73;;
9938;SDS011;5008;50.656;7.188;2023-02-15T05:03:39;19.83;;;13.13;;
9938;SDS011;5008;50.656;7.188;2023-02-15T05:06:06;19.17;;;13.20;;
9938;SDS011;5008;50.656;7.188;2023-02-15T05:08:33;19.97;;;14.17;;
9938;SDS011;5008;50.656;7.188;2023-02-15T05:11:00;19.47;;;13.57;;
9938;SDS011;5008;50.656;7.188;2023-02-15T05:13:27;19.13;;;13.27;;
9938;SDS011;5008;50.656;7.188;2023-02-15T05:15:53;19.00;;;14.53;;
9938;SDS011;5008;50.656;7.188;2023-02-15T05:18:21;16.93;;;12.87;;
9938;SDS011;5008;50.656;7.188;2023-02-15T05:20:48;18.77;;;13.43;;
9938;SDS011;5008;50.656;7.188;2023-02-15T05:23:15;17.27;;;12.60;;
9938;SDS011;5008;50.656;7.188;2023-02-15T05:25:45;19.10;;;13.67;;
9938;SDS011;5008;50.656;7.188;2023-02-15T05:28:31;18.33;;;12.60;;
9938;SDS011;5008;50.656;7.188;2023-02-15T05:31:00;17.73;;;12.50;;
9938;SDS011;5008;50.656;7.188;2023-02-15T05:33:31;18.77;;;12.87;;
9938;SDS011;5008;50.656;7.188;2023-02-15T05:35:58;17.37;;;12.23;;
9938;SDS011;5008;50.656;7.188;2023-02-15T05:38:26;17.83;;;12.90;;
9938;SDS011;5008;50.656;7.188;2023-02-15T05:40:52;17.63;;;12.20;;
9938;SDS011;5008;50.656;7.188;2023-02-15T05:43:20;16.80;;;12.60;;
9938;SDS011;5008;50.656;7.188;2023-02-15T05:45:47;17.13;;;12.70;;
9938;SDS011;5008;50.656;7.188;2023-02-15T05:48:14;16.93;;;11.93;;
9938;SDS011;5008;50.656;7.188;2023-02-15T05:50:43;17.77;;;12.20;;
9938;SDS011;5008;50.656;7.188;2023-02-15T05:53:10;15.97;;;11.80;;
9938;SDS011;5008;50.656;7.188;2023-02-15T05:55:37;17.10;;;12.53;;
9938;SDS011;5008;50.656;7.188;2023-02-15T05:58:04;17.37;;;13.00;;
9938;SDS011;5008;50.656;7.188;2023-02-15T06:00:31;16.20;;;12.07;;
9938;SDS011;5008;50.656;7.188;2023-02-15T06:02:58;17.57;;;12.00;;
9938;SDS011;5008;50.656;7.188;2023-02-15T06:05:25;16.60;;;12.07;;
9938;SDS011;5008;50.656;7.188;2023-02-15T06:07:53;17.60;;;13.10;;
9938;SDS011;5008;50.656;7.188;2023-02-15T06:10:20;17.80;;;12.93;;
9938;SDS011;5008;50.656;7.188;2023-02-15T06:12:47;18.00;;;12.60;;
9938;SDS011;5008;50.656;7.188;2023-02-15T06:15:13;16.23;;;12.13;;
9938;SDS011;5008;50.656;7.188;2023-02-15T06:17:41;17.47;;;12.40;;
9938;SDS011;5008;50.656;7.188;2023-02-15T06:20:08;16.30;;;12.27;;
9938;SDS011;5008;50.656;7.188;2023-02-15T06:22:35;17.10;;;12.00;;
9938;SDS011;5008;50.656;7.188;2023-02-15T06:25:04;15.50;;;11.27;;
9938;SDS011;5008;50.656;7.188;2023-02-15T06:27:34;17.27;;;12.10;;
9938;SDS011;5008;50.656;7.188;2023-02-15T06:30:02;15.33;;;11.67;;
9938;SDS011;5008;50.656;7.188;2023-02-15T06:32:29;15.83;;;11.80;;
9938;SDS011;5008;50.656;7.188;2023-02-15T06:34:56;17.00;;;11.93;;
9938;SDS011;5008;50.656;7.188;2023-02-15T06:37:23;15.87;;;11.33;;
9938;SDS011;5008;50.656;7.188;2023-02-15T06:39:49;15.27;;;11.23;;
9938;SDS011;5008;50.656;7.188;2023-02-15T06:42:18;14.20;;;10.90;;
9938;SDS011;5008;50.656;7.188;2023-02-15T06:44:44;18.57;;;12.40;;
9938;SDS011;5008;50.656;7.188;2023-02-15T06:47:11;14.97;;;10.40;;
9938;SDS011;5008;50.656;7.188;2023-02-15T06:49:38;13.37;;;10.63;;
9938;SDS011;5008;50.656;7.188;2023-02-15T06:52:05;16.40;;;12.13;;
9938;SDS011;5008;50.656;7.188;2023-02-15T06:54:32;17.10;;;11.97;;
9938;SDS011;5008;50.656;7.188;2023-02-15T06:56:58;14.03;;;10.13;;
9938;SDS011;5008;50.656;7.188;2023-02-15T06:59:26;15.83;;;11.20;;
9938;SDS011;5008;50.656;7.188;2023-02-15T07:01:53;14.60;;;10.70;;
9938;SDS011;5008;50.656;7.188;2023-02-15T07:04:20;16.37;;;12.10;;
9938;SDS011;5008;50.656;7.188;2023-02-15T07:06:47;14.10;;;10.23;;
9938;SDS011;5008;50.656;7.188;2023-02-15T07:09:13;14.17;;;10.40;;
9938;SDS011;5008;50.656;7.188;2023-02-15T07:11:40;14.90;;;10.93;;
9938;SDS011;5008;50.656;7.188;2023-02-15T07:14:24;14.03;;;10.83;;
9938;SDS011;5008;50.656;7.188;2023-02-15T07:16:52;14.27;;;10.97;;
9938;SDS011;5008;50.656;7.188;2023-02-15T07:19:19;13.63;;;10.33;;
9938;SDS011;5008;50.656;7.188;2023-02-15T07:21:46;15.37;;;11.03;;
9938;SDS011;5008;50.656;7.188;2023-02-15T07:24:13;14.00;;;10.23;;
9938;SDS011;5008;50.656;7.188;2023-02-15T07:26:40;16.30;;;11.67;;
9938;SDS011;5008;50.656;7.188;2023-02-15T07:29:07;15.03;;;11.03;;
9938;SDS011;5008;50.656;7.188;2023-02-15T07:31:35;15.50;;;10.73;;
9938;SDS011;5008;50.656;7.188;2023-02-15T07:34:02;14.10;;;10.47;;
9938;SDS011;5008;50.656;7.188;2023-02-15T07:36:28;13.90;;;10.40;;
9938;SDS011;5008;50.656;7.188;2023-02-15T07:38:55;15.97;;;10.83;;
9938;SDS011;5008;50.656;7.188;2023-02-15T07:41:22;13.77;;;10.47;;
9938;SDS011;5008;50.656;7.188;2023-02-15T07:43:50;14.73;;;10.30;;
9938;SDS011;5008;50.656;7.188;2023-02-15T07:46:17;14.70;;;10.20;;
9938;SDS011;5008;50.656;7.188;2023-02-15T07:48:46;16.10;;;10.80;;
9938;SDS011;5008;50.656;7.188;2023-02-15T07:51:14;13.90;;;10.87;;
9938;SDS011;5008;50.656;7.188;2023-02-15T07:53:41;15.83;;;10.90;;
9938;SDS011;5008;50.656;7.188;2023-02-15T07:56:09;14.93;;;10.07;;
9938;SDS011;5008;50.656;7.188;2023-02-15T07:58:37;13.03;;;9.80;;
9938;SDS011;5008;50.656;7.188;2023-02-15T08:01:17;13.23;;;10.57;;
9938;SDS011;5008;50.656;7.188;2023-02-15T08:03:44;14.23;;;10.70;;
9938;SDS011;5008;50.656;7.188;2023-02-15T08:06:12;12.93;;;9.97;;
9938;SDS011;5008;50.656;7.188;2023-02-15T08:08:39;14.17;;;10.50;;
9938;SDS011;5008;50.656;7.188;2023-02-15T08:11:17;13.83;;;10.27;;
9938;SDS011;5008;50.656;7.188;2023-02-15T08:14:02;14.30;;;10.53;;
9938;SDS011;5008;50.656;7.188;2023-02-15T08:16:30;15.10;;;10.90;;
9938;SDS011;5008;50.656;7.188;2023-02-15T08:18:59;12.90;;;9.63;;
9938;SDS011;5008;50.656;7.188;2023-02-15T08:21:29;12.87;;;10.10;;
9938;SDS011;5008;50.656;7.188;2023-02-15T08:23:57;15.30;;;10.83;;
9938;SDS011;5008;50.656;7.188;2023-02-15T08:26:25;13.93;;;9.87;;
9938;SDS011;5008;50.656;7.188;2023-02-15T08:28:53;14.10;;;10.47;;
9938;SDS011;5008;50.656;7.188;2023-02-15T08:31:20;14.57;;;10.43;;
9938;SDS011;5008;50.656;7.188;2023-02-15T08:33:47;13.03;;;10.73;;
9938;SDS011;5008;50.656;7.188;2023-02-15T08:36:16;14.97;;;10.53;;
9938;SDS011;5008;50.656;7.188;2023-02-15T08:38:46;13.63;;;10.53;;
9938;SDS011;5008;50.656;7.188;2023-02-15T08:41:14;13.03;;;10.70;;
9938;SDS011;5008;50.656;7.188;2023-02-15T08:43:43;12.80;;;10.07;;
9938;SDS011;5008;50.656;7.188;2023-02-15T08:46:11;14.20;;;10.83;;
9938;SDS011;5008;50.656;7.188;2023-02-15T08:48:39;13.60;;;10.50;;
9938;SDS011;5008;50.656;7.188;2023-02-15T08:51:07;14.37;;;9.87;;
9938;SDS011;5008;50.656;7.188;2023-02-15T08:53:36;13.70;;;9.67;;
9938;SDS011;5008;50.656;7.188;2023-02-15T08:56:06;15.07;;;11.13;;
9938;SDS011;5008;50.656;7.188;2023-02-15T08:58:33;14.27;;;10.87;;
9938;SDS011;5008;50.656;7.188;2023-02-15T09:01:01;16.37;;;10.13;;
9938;SDS011;5008;50.656;7.188;2023-02-15T09:03:33;15.20;;;10.73;;
9938;SDS011;5008;50.656;7.188;2023-02-15T09:06:00;14.10;;;10.40;;
9938;SDS011;5008;50.656;7.188;2023-02-15T09:08:27;15.23;;;11.10;;
9938;SDS011;5008;50.656;7.188;2023-02-15T09:11:03;12.03;;;10.10;;
9938;SDS011;5008;50.656;7.188;2023-02-15T09:13:32;15.60;;;11.13;;
9938;SDS011;5008;50.656;7.188;2023-02-15T09:15:59;15.00;;;10.73;;
9938;SDS011;5008;50.656;7.188;2023-02-15T09:18:27;14.53;;;10.50;;
9938;SDS011;5008;50.656;7.188;2023-02-15T09:20:55;13.80;;;10.10;;
9938;SDS011;5008;50.656;7.188;2023-02-15T09:23:22;15.03;;;11.53;;
9938;SDS011;5008;50.656;7.188;2023-02-15T09:25:48;11.47;;;9.70;;
9938;SDS011;5008;50.656;7.188;2023-02-15T09:28:16;13.73;;;10.30;;
9938;SDS011;5008;50.656;7.188;2023-02-15T09:30:43;13.87;;;10.80;;
9938;SDS011;5008;50.656;7.188;2023-02-15T09:33:10;14.67;;;10.80;;
9938;SDS011;5008;50.656;7.188;2023-02-15T09:35:37;15.20;;;10.97;;
9938;SDS011;5008;50.656;7.188;2023-02-15T09:38:03;13.93;;;11.03;;
9938;SDS011;5008;50.656;7.188;2023-02-15T09:40:30;13.03;;;10.77;;
9938;SDS011;5008;50.656;7.188;2023-02-15T09:43:12;14.50;;;10.60;;
9938;SDS011;5008;50.656;7.188;2023-02-15T09:46:03;12.83;;;10.70;;
9938;SDS011;5008;50.656;7.188;2023-02-15T09:48:40;13.13;;;10.50;;
9938;SDS011;5008;50.656;7.188;2023-02-15T09:54:06;15.00;;;11.13;;
9938;SDS011;5008;50.656;7.188;2023-02-15T09:56:42;13.20;;;10.60;;
9938;SDS011;5008;50.656;7.188;2023-02-15T09:59:18;12.67;;;10.70;;
9938;SDS011;5008;50.656;7.188;2023-02-15T10:01:54;15.67;;;11.17;;
9938;SDS011;5008;50.656;7.188;2023-02-15T10:04:32;13.93;;;10.77;;
9938;SDS011;5008;50.656;7.188;2023-02-15T10:07:15;14.53;;;11.47;;
9938;SDS011;5008;50.656;7.188;2023-02-15T10:10:01;15.10;;;11.13;;
9938;SDS011;5008;50.656;7.188;2023-02-15T10:12:39;13.60;;;11.00;;
9938;SDS011;5008;50.656;7.188;2023-02-15T10:15:30;15.00;;;10.43;;
9938;SDS011;5008;50.656;7.188;2023-02-15T10:18:06;13.90;;;10.60;;
9938;SDS011;5008;50.656;7.188;2023-02-15T10:20:50;13.87;;;10.97;;
9938;SDS011;5008;50.656;7.188;2023-02-15T10:23:27;15.90;;;11.27;;
9938;SDS011;5008;50.656;7.188;2023-02-15T10:26:07;10.67;;;9.07;;
9938;SDS011;5008;50.656;7.188;2023-02-15T10:28:42;12.83;;;10.50;;
9938;SDS011;5008;50.656;7.188;2023-02-15T10:31:15;12.47;;;9.87;;
9938;SDS011;5008;50.656;7.188;2023-02-15T10:33:50;13.47;;;10.53;;
9938;SDS011;5008;50.656;7.188;2023-02-15T10:36:36;14.13;;;10.30;;
9938;SDS011;5008;50.656;7.188;2023-02-15T10:39:12;10.37;;;8.87;;
9938;SDS011;5008;50.656;7.188;2023-02-15T10:41:51;14.97;;;10.43;;
9938;SDS011;5008;50.656;7.188;2023-02-15T10:44:30;12.97;;;11.47;;
9938;SDS011;5008;50.656;7.188;2023-02-15T10:47:22;12.73;;;10.60;;
9938;SDS011;5008;50.656;7.188;2023-02-15T10:50:21;13.33;;;10.10;;
9938;SDS011;5008;50.656;7.188;2023-02-15T10:55:45;13.70;;;11.17;;
9938;SDS011;5008;50.656;7.188;2023-02-15T10:58:21;12.70;;;10.27;;
9938;SDS011;5008;50.656;7.188;2023-02-15T11:01:00;14.03;;;10.20;;
9938;SDS011;5008;50.656;7.188;2023-02-15T11:03:42;13.03;;;11.07;;
9938;SDS011;5008;50.656;7.188;2023-02-15T11:06:21;13.57;;;10.13;;
9938;SDS011;5008;50.656;7.188;2023-02-15T11:08:53;14.03;;;9.67;;
9938;SDS011;5008;50.656;7.188;2023-02-15T11:11:23;14.83;;;12.30;;
9938;SDS011;5008;50.656;7.188;2023-02-15T11:13:54;12.57;;;10.33;;
9938;SDS011;5008;50.656;7.188;2023-02-15T11:16:26;14.17;;;10.53;;
9938;SDS011;5008;50.656;7.188;2023-02-15T11:18:59;13.50;;;10.83;;
9938;SDS011;5008;50.656;7.188;2023-02-15T11:21:31;12.17;;;10.50;;
9938;SDS011;5008;50.656;7.188;2023-02-15T11:24:07;13.57;;;10.57;;
9938;SDS011;5008;50.656;7.188;2023-02-15T11:26:39;10.17;;;8.73;;
9938;SDS011;5008;50.656;7.188;2023-02-15T11:29:10;12.03;;;9.93;;
9938;SDS011;5008;50.656;7.188;2023-02-15T11:31:41;8.57;;;7.73;;
9938;SDS011;5008;50.656;7.188;2023-02-15T11:34:13;11.27;;;9.83;;
9938;SDS011;5008;50.656;7.188;2023-02-15T11:36:45;13.57;;;10.60;;
9938;SDS011;5008;50.656;7.188;2023-02-15T11:39:15;13.13;;;10.00;;
9938;SDS011;5008;50.656;7.188;2023-02-15T11:41:44;12.10;;;10.07;;
9938;SDS011;5008;50.656;7.188;2023-02-15T11:44:17;11.90;;;10.20;;
9938;SDS011;5008;50.656;7.188;2023-02-15T11:46:51;10.80;;;9.30;;
9938;SDS011;5008;50.656;7.188;2023-02-15T11:49:24;12.60;;;10.70;;
9938;SDS011;5008;50.656;7.188;2023-02-15T11:51:54;13.00;;;10.03;;
9938;SDS011;5008;50.656;7.188;2023-02-15T11:54:24;12.97;;;10.33;;
9938;SDS011;5008;50.656;7.188;2023-02-15T11:56:54;13.40;;;10.57;;
9938;SDS011;5008;50.656;7.188;2023-02-15T11:59:24;12.80;;;10.27;;
9938;SDS011;5008;50.656;7.188;2023-02-15T12:01:56;12.67;;;9.40;;
9938;SDS011;5008;50.656;7.188;2023-02-15T12:04:25;10.47;;;9.10;;
9938;SDS011;5008;50.656;7.188;2023-02-15T12:06:57;11.60;;;9.53;;
9938;SDS011;5008;50.656;7.188;2023-02-15T12:09:27;10.20;;;8.43;;
9938;SDS011;5008;50.656;7.188;2023-02-15T12:12:19;10.50;;;9.40;;
9938;SDS011;5008;50.656;7.188;2023-02-15T12:14:48;12.77;;;10.00;;
9938;SDS011;5008;50.656;7.188;2023-02-15T12:17:16;10.80;;;9.70;;
9938;SDS011;5008;50.656;7.188;2023-02-15T12:19:47;11.17;;;9.73;;
9938;SDS011;5008;50.656;7.188;2023-02-15T12:22:18;11.47;;;9.37;;
9938;SDS011;5008;50.656;7.188;2023-02-15T12:24:49;10.80;;;9.70;;
9938;SDS011;5008;50.656;7.188;2023-02-15T12:27:19;9.53;;;8.37;;
9938;SDS011;5008;50.656;7.188;2023-02-15T12:29:48;10.00;;;8.73;;
9938;SDS011;5008;50.656;7.188;2023-02-15T12:32:17;13.00;;;10.00;;
9938;SDS011;5008;50.656;7.188;2023-02-15T12:34:49;11.23;;;8.70;;
9938;SDS011;5008;50.656;7.188;2023-02-15T12:37:19;10.95;;;9.05;;
9938;SDS011;5008;50.656;7.188;2023-02-15T12:39:52;10.88;;;9.73;;
9938;SDS011;5008;50.656;7.188;2023-02-15T12:42:21;10.77;;;9.68;;
9938;SDS011;5008;50.656;7.188;2023-02-15T12:44:59;9.77;;;8.88;;
9938;SDS011;5008;50.656;7.188;2023-02-15T12:47:27;8.55;;;7.75;;
9938;SDS011;5008;50.656;7.188;2023-02-15T12:50:05;8.68;;;7.88;;
9938;SDS011;5008;50.656;7.188;2023-02-15T12:52:41;11.00;;;9.90;;
9938;SDS011;5008;50.656;7.188;2023-02-15T12:55:17;11.52;;;10.43;;
9938;SDS011;5008;50.656;7.188;2023-02-15T12:57:46;10.32;;;9.43;;
9938;SDS011;5008;50.656;7.188;2023-02-15T13:00:25;12.65;;;11.27;;
9938;SDS011;5008;50.656;7.188;2023-02-15T13:02:56;10.48;;;9.50;;
9938;SDS011;5008;50.656;7.188;2023-02-15T13:05:28;8.73;;;7.78;;
9938;SDS011;5008;50.656;7.188;2023-02-15T13:08:00;10.23;;;9.23;;
9938;SDS011;5008;50.656;7.188;2023-02-15T13:10:31;9.68;;;8.68;;
9938;SDS011;5008;50.656;7.188;2023-02-15T13:13:01;10.10;;;9.13;;
9938;SDS011;5008;50.656;7.188;2023-02-15T13:15:35;10.10;;;9.15;;
9938;SDS011;5008;50.656;7.188;2023-02-15T13:18:05;9.85;;;8.93;;
9938;SDS011;5008;50.656;7.188;2023-02-15T13:20:41;11.27;;;9.95;;
9938;SDS011;5008;50.656;7.188;2023-02-15T13:23:13;11.45;;;10.35;;
9938;SDS011;5008;50.656;7.188;2023-02-15T13:25:52;10.20;;;9.30;;
9938;SDS011;5008;50.656;7.188;2023-02-15T13:28:22;10.25;;;9.02;;
9938;SDS011;5008;50.656;7.188;2023-02-15T13:30:51;11.13;;;10.07;;
9938;SDS011;5008;50.656;7.188;2023-02-15T13:33:20;8.55;;;7.82;;
9938;SDS011;5008;50.656;7.188;2023-02-15T13:35:57;10.25;;;9.25;;
9938;SDS011;5008;50.656;7.188;2023-02-15T13:41:44;7.82;;;7.13;;
9938;SDS011;5008;50.656;7.188;2023-02-15T13:44:19;9.60;;;8.60;;
9938;SDS011;5008;50.656;7.188;2023-02-15T13:46:56;10.32;;;9.38;;
9938;SDS011;5008;50.656;7.188;2023-02-15T13:49:36;10.98;;;9.93;;
9938;SDS011;5008;50.656;7.188;2023-02-15T13:52:17;10.73;;;9.73;;
9938;SDS011;5008;50.656;7.188;2023-02-15T13:58:01;10.65;;;9.65;;
9938;SDS011;5008;50.656;7.188;2023-02-15T14:00:42;10.32;;;9.32;;
9938;SDS011;5008;50.656;7.188;2023-02-15T14:03:21;9.43;;;8.52;;
9938;SDS011;5008;50.656;7.188;2023-02-15T14:06:14;10.30;;;9.20;;
9938;SDS011;5008;50.656;7.188;2023-02-15T14:08:57;10.32;;;9.43;;
9938;SDS011;5008;50.656;7.188;2023-02-15T14:11:36;9.73;;;8.93;;
9938;SDS011;5008;50.656;7.188;2023-02-15T14:14:12;10.85;;;9.88;;
9938;SDS011;5008;50.656;7.188;2023-02-15T14:17:00;9.68;;;8.80;;
9938;SDS011;5008;50.656;7.188;2023-02-15T14:19:35;10.48;;;9.48;;
9938;SDS011;5008;50.656;7.188;2023-02-15T14:22:07;10.68;;;9.57;;
9938;SDS011;5008;50.656;7.188;2023-02-15T14:24:42;10.90;;;9.90;;
9938;SDS011;5008;50.656;7.188;2023-02-15T14:27:17;10.40;;;9.57;;
9938;SDS011;5008;50.656;7.188;2023-02-15T14:29:51;8.57;;;7.72;;
9938;SDS011;5008;50.656;7.188;2023-02-15T14:32:21;8.18;;;7.47;;
9938;SDS011;5008;50.656;7.188;2023-02-15T14:34:56;10.77;;;9.63;;
9938;SDS011;5008;50.656;7.188;2023-02-15T14:37:29;9.65;;;8.77;;
9938;SDS011;5008;50.656;7.188;2023-02-15T14:40:10;9.38;;;8.45;;
9938;SDS011;5008;50.656;7.188;2023-02-15T14:43:06;9.27;;;8.48;;
9938;SDS011;5008;50.656;7.188;2023-02-15T14:45:39;8.07;;;7.28;;
9938;SDS011;5008;50.656;7.188;2023-02-15T14:48:12;8.05;;;6.75;;
9938;SDS011;5008;50.656;7.188;2023-02-15T14:50:44;8.27;;;7.50;;
9938;SDS011;5008;50.656;7.188;2023-02-15T14:56:18;8.95;;;8.15;;
9938;SDS011;5008;50.656;7.188;2023-02-15T14:59:08;11.82;;;10.32;;
9938;SDS011;5008;50.656;7.188;2023-02-15T15:01:51;8.90;;;8.10;;
9938;SDS011;5008;50.656;7.188;2023-02-15T15:04:23;7.93;;;7.20;;
9938;SDS011;5008;50.656;7.188;2023-02-15T15:06:59;9.70;;;8.70;;
9938;SDS011;5008;50.656;7.188;2023-02-15T15:09:31;7.70;;;6.95;;
9938;SDS011;5008;50.656;7.188;2023-02-15T15:12:14;10.75;;;9.25;;
9938;SDS011;5008;50.656;7.188;2023-02-15T15:15:02;9.70;;;8.57;;
9938;SDS011;5008;50.656;7.188;2023-02-15T15:20:46;10.38;;;8.75;;
9938;SDS011;5008;50.656;7.188;2023-02-15T15:26:20;9.73;;;8.23;;
9938;SDS011;5008;50.656;7.188;2023-02-15T15:28:54;8.77;;;7.90;;
9938;SDS011;5008;50.656;7.188;2023-02-15T15:31:23;6.40;;;5.80;;
9938;SDS011;5008;50.656;7.188;2023-02-15T15:34:18;10.73;;;8.13;;
9938;SDS011;5008;50.656;7.188;2023-02-15T15:49:24;9.40;;;8.40;;
9938;SDS011;5008;50.656;7.188;2023-02-15T15:51:55;10.03;;;8.37;;
9938;SDS011;5008;50.656;7.188;2023-02-15T15:54:27;10.97;;;9.23;;
9938;SDS011;5008;50.656;7.188;2023-02-15T15:56:55;9.90;;;6.97;;
9938;SDS011;5008;50.656;7.188;2023-02-15T15:59:24;6.93;;;6.20;;
9938;SDS011;5008;50.656;7.188;2023-02-15T16:01:55;6.50;;;5.90;;
9938;SDS011;5008;50.656;7.188;2023-02-15T16:04:23;8.23;;;7.43;;
9938;SDS011;5008;50.656;7.188;2023-02-15T16:06:51;9.87;;;7.97;;
9938;SDS011;5008;50.656;7.188;2023-02-15T16:09:19;8.67;;;7.73;;
9938;SDS011;5008;50.656;7.188;2023-02-15T16:11:49;8.27;;;6.93;;
9938;SDS011;5008;50.656;7.188;2023-02-15T16:14:20;8.50;;;7.27;;
9938;SDS011;5008;50.656;7.188;2023-02-15T16:16:55;9.50;;;7.83;;
9938;SDS011;5008;50.656;7.188;2023-02-15T16:19:26;9.73;;;8.70;;
9938;SDS011;5008;50.656;7.188;2023-02-15T16:21:55;11.60;;;8.67;;
9938;SDS011;5008;50.656;7.188;2023-02-15T16:24:28;10.07;;;7.47;;
9938;SDS011;5008;50.656;7.188;2023-02-15T16:30:19;7.33;;;6.60;;
9938;SDS011;5008;50.656;7.188;2023-02-15T16:33:02;7.73;;;6.87;;
9938;SDS011;5008;50.656;7.188;2023-02-15T16:35:31;9.47;;;7.70;;
9938;SDS011;5008;50.656;7.188;2023-02-15T16:37:58;7.70;;;6.90;;
9938;SDS011;5008;50.656;7.188;2023-02-15T16:40:26;10.93;;;8.53;;
9938;SDS011;5008;50.656;7.188;2023-02-15T16:43:11;9.53;;;7.10;;
9938;SDS011;5008;50.656;7.188;2023-02-15T16:45:42;16.13;;;8.93;;
9938;SDS011;5008;50.656;7.188;2023-02-15T16:48:12;10.97;;;8.40;;
9938;SDS011;5008;50.656;7.188;2023-02-15T16:50:46;10.20;;;8.57;;
9938;SDS011;5008;50.656;7.188;2023-02-15T16:53:16;8.43;;;7.33;;
9938;SDS011;5008;50.656;7.188;2023-02-15T16:55:47;12.50;;;9.90;;
9938;SDS011;5008;50.656;7.188;2023-02-15T16:58:17;9.10;;;7.97;;
9938;SDS011;5008;50.656;7.188;2023-02-15T17:00:48;10.43;;;8.27;;
9938;SDS011;5008;50.656;7.188;2023-02-15T17:03:22;9.23;;;8.20;;
9938;SDS011;5008;50.656;7.188;2023-02-15T17:05:51;8.53;;;7.53;;
9938;SDS011;5008;50.656;7.188;2023-02-15T17:08:23;9.67;;;7.23;;
9938;SDS011;5008;50.656;7.188;2023-02-15T17:11:10;9.20;;;7.83;;
9938;SDS011;5008;50.656;7.188;2023-02-15T17:13:39;8.30;;;7.33;;
9938;SDS011;5008;50.656;7.188;2023-02-15T17:16:47;11.27;;;8.10;;
9938;SDS011;5008;50.656;7.188;2023-02-15T17:19:19;11.57;;;8.23;;
9938;SDS011;5008;50.656;7.188;2023-02-15T17:21:50;12.27;;;9.60;;
9938;SDS011;5008;50.656;7.188;2023-02-15T17:24:19;9.63;;;8.13;;
9938;SDS011;5008;50.656;7.188;2023-02-15T17:26:51;12.43;;;8.97;;
9938;SDS011;5008;50.656;7.188;2023-02-15T17:29:27;11.67;;;9.20;;
9938;SDS011;5008;50.656;7.188;2023-02-15T17:31:58;12.67;;;8.77;;
9938;SDS011;5008;50.656;7.188;2023-02-15T17:34:44;10.30;;;8.73;;
9938;SDS011;5008;50.656;7.188;2023-02-15T17:37:23;8.33;;;7.03;;
9938;SDS011;5008;50.656;7.188;2023-02-15T17:39:54;10.37;;;8.50;;
9938;SDS011;5008;50.656;7.188;2023-02-15T17:42:22;10.50;;;9.40;;
9938;SDS011;5008;50.656;7.188;2023-02-15T17:44:49;9.13;;;8.23;;
9938;SDS011;5008;50.656;7.188;2023-02-15T17:47:16;10.13;;;8.20;;
9938;SDS011;5008;50.656;7.188;2023-02-15T17:49:47;9.17;;;7.83;;
9938;SDS011;5008;50.656;7.188;2023-02-15T17:52:15;11.10;;;9.90;;
9938;SDS011;5008;50.656;7.188;2023-02-15T17:54:43;11.27;;;9.00;;
9938;SDS011;5008;50.656;7.188;2023-02-15T17:57:27;10.00;;;8.97;;
9938;SDS011;5008;50.656;7.188;2023-02-15T17:59:55;11.40;;;9.70;;
9938;SDS011;5008;50.656;7.188;2023-02-15T18:02:39;13.03;;;9.83;;
9938;SDS011;5008;50.656;7.188;2023-02-15T18:05:25;10.13;;;9.10;;
9938;SDS011;5008;50.656;7.188;2023-02-15T18:08:10;9.87;;;8.03;;
9938;SDS011;5008;50.656;7.188;2023-02-15T18:10:57;10.03;;;8.97;;
9938;SDS011;5008;50.656;7.188;2023-02-15T18:13:41;9.80;;;8.80;;
9938;SDS011;5008;50.656;7.188;2023-02-15T18:16:10;12.87;;;9.67;;
9938;SDS011;5008;50.656;7.188;2023-02-15T18:18:40;10.00;;;9.00;;
9938;SDS011;5008;50.656;7.188;2023-02-15T18:21:10;12.67;;;10.70;;
9938;SDS011;5008;50.656;7.188;2023-02-15T18:23:37;13.43;;;10.03;;
9938;SDS011;5008;50.656;7.188;2023-02-15T18:26:04;11.93;;;9.43;;
9938;SDS011;5008;50.656;7.188;2023-02-15T18:28:32;10.53;;;9.30;;
9938;SDS011;5008;50.656;7.188;2023-02-15T18:30:59;12.87;;;9.40;;
9938;SDS011;5008;50.656;7.188;2023-02-15T18:33:28;10.00;;;8.73;;
9938;SDS011;5008;50.656;7.188;2023-02-15T18:35:59;8.50;;;7.60;;
9938;SDS011;5008;50.656;7.188;2023-02-15T18:38:28;11.70;;;10.33;;
9938;SDS011;5008;50.656;7.188;2023-02-15T18:40:56;11.67;;;10.50;;
9938;SDS011;5008;50.656;7.188;2023-02-15T18:43:22;9.97;;;8.97;;
9938;SDS011;5008;50.656;7.188;2023-02-15T18:45:49;12.63;;;10.33;;
9938;SDS011;5008;50.656;7.188;2023-02-15T18:48:16;13.27;;;10.73;;
9938;SDS011;5008;50.656;7.188;2023-02-15T18:50:43;12.07;;;9.93;;
9938;SDS011;5008;50.656;7.188;2023-02-15T18:53:12;12.60;;;10.03;;
9938;SDS011;5008;50.656;7.188;2023-02-15T18:55:44;12.07;;;10.77;;
9938;SDS011;5008;50.656;7.188;2023-02-15T18:58:15;10.87;;;8.83;;
9938;SDS011;5008;50.656;7.188;2023-02-15T19:00:43;12.77;;;10.93;;
9938;SDS011;5008;50.656;7.188;2023-02-15T19:03:11;13.40;;;10.60;;
9938;SDS011;5008;50.656;7.188;2023-02-15T19:05:40;11.20;;;9.83;;
9938;SDS011;5008;50.656;7.188;2023-02-15T19:08:12;14.07;;;11.60;;
9938;SDS011;5008;50.656;7.188;2023-02-15T19:10:47;10.80;;;9.70;;
9938;SDS011;5008;50.656;7.188;2023-02-15T19:13:14;15.03;;;11.30;;
9938;SDS011;5008;50.656;7.188;2023-02-15T19:15:41;14.60;;;11.53;;
9938;SDS011;5008;50.656;7.188;2023-02-15T19:18:08;14.03;;;11.30;;
9938;SDS011;5008;50.656;7.188;2023-02-15T19:20:35;12.70;;;10.50;;
9938;SDS011;5008;50.656;7.188;2023-02-15T19:23:05;13.23;;;11.67;;
9938;SDS011;5008;50.656;7.188;2023-02-15T19:25:37;12.17;;;10.70;;
9938;SDS011;5008;50.656;7.188;2023-02-15T19:28:08;14.37;;;11.53;;
9938;SDS011;5008;50.656;7.188;2023-02-15T19:30:41;14.37;;;11.20;;
9938;SDS011;5008;50.656;7.188;2023-02-15T19:33:09;14.93;;;11.43;;
9938;SDS011;5008;50.656;7.188;2023-02-15T19:35:42;13.70;;;11.07;;
9938;SDS011;5008;50.656;7.188;2023-02-15T19:38:13;27.13;;;16.53;;
9938;SDS011;5008;50.656;7.188;2023-02-15T19:40:44;29.67;;;17.53;;
9938;SDS011;5008;50.656;7.188;2023-02-15T19:43:15;27.47;;;18.07;;
9938;SDS011;5008;50.656;7.188;2023-02-15T19:45:43;23.17;;;16.27;;
9938;SDS011;5008;50.656;7.188;2023-02-15T19:48:11;20.87;;;14.43;;
9938;SDS011;5008;50.656;7.188;2023-02-15T19:50:39;16.63;;;13.17;;
9938;SDS011;5008;50.656;7.188;2023-02-15T19:53:12;18.37;;;13.90;;
9938;SDS011;5008;50.656;7.188;2023-02-15T19:55:45;17.43;;;13.03;;
9938;SDS011;5008;50.656;7.188;2023-02-15T19:58:12;16.93;;;12.60;;
9938;SDS011;5008;50.656;7.188;2023-02-15T20:00:43;16.77;;;12.83;;
9938;SDS011;5008;50.656;7.188;2023-02-15T20:03:11;14.30;;;12.20;;
9938;SDS011;5008;50.656;7.188;2023-02-15T20:05:38;15.00;;;12.80;;
9938;SDS011;5008;50.656;7.188;2023-02-15T20:08:06;14.93;;;12.77;;
9938;SDS011;5008;50.656;7.188;2023-02-15T20:10:41;16.03;;;12.80;;
9938;SDS011;5008;50.656;7.188;2023-02-15T20:13:09;16.47;;;12.60;;
9938;SDS011;5008;50.656;7.188;2023-02-15T20:15:41;14.77;;;12.53;;
9938;SDS011;5008;50.656;7.188;2023-02-15T20:18:08;14.53;;;12.97;;
9938;SDS011;5008;50.656;7.188;2023-02-15T20:20:37;14.43;;;12.90;;
9938;SDS011;5008;50.656;7.188;2023-02-15T20:23:08;15.57;;;12.83;;
9938;SDS011;5008;50.656;7.188;2023-02-15T20:25:41;14.73;;;13.00;;
9938;SDS011;5008;50.656;7.188;2023-02-15T20:28:09;14.67;;;12.70;;
9938;SDS011;5008;50.656;7.188;2023-02-15T20:30:41;18.53;;;15.00;;
9938;SDS011;5008;50.656;7.188;2023-02-15T20:33:09;16.80;;;13.40;;
9938;SDS011;5008;50.656;7.188;2023-02-15T20:35:36;18.63;;;13.53;;
9938;SDS011;5008;50.656;7.188;2023-02-15T20:38:03;13.93;;;12.37;;
9938;SDS011;5008;50.656;7.188;2023-02-15T20:40:31;16.37;;;13.03;;
9938;SDS011;5008;50.656;7.188;2023-02-15T20:42:59;17.10;;;13.97;;
9938;SDS011;5008;50.656;7.188;2023-02-15T20:45:27;16.80;;;12.93;;
9938;SDS011;5008;50.656;7.188;2023-02-15T20:47:57;16.80;;;13.37;;
9938;SDS011;5008;50.656;7.188;2023-02-15T20:50:26;16.27;;;13.60;;
9938;SDS011;5008;50.656;7.188;2023-02-15T20:52:56;16.70;;;13.33;;
9938;SDS011;5008;50.656;7.188;2023-02-15T20:55:27;16.37;;;13.33;;
9938;SDS011;5008;50.656;7.188;2023-02-15T20:57:55;17.33;;;14.37;;
9938;SDS011;5008;50.656;7.188;2023-02-15T21:00:22;16.73;;;14.53;;